LiveATC.Net - Listen to live air traffic control over the Internet!


ICAO: KRAC  IATA: RAC   Airport: John H Batten Airport
City: Racine   State/Province: Wisconsin
Country: United States   Continent: North America
KRAC METAR Weather: KRAC 242053Z AUTO 05006KT 10SM OVC050 23/16 A3017 RMK AO2 SLP214 T02280161 55002
KRAC ADS-B Flight Tracking  (ADSBExchange)
KRAC Flight Activity (FlightAware)
KRAC Airport Info   (iFlightPlanner)
KRAC VFR Sectional Chart   (iFlightPlanner) 
KRAC IFR Low Altitude Chart   (iFlightPlanner) 
KRAC IFR High Altitude Chart   (iFlightPlanner) 

KRAC CTAF
Feed Status: DOWN
Last heard on: 2024-07-09 15:22:39 (15 days 5 hours 45 minutes ago)
Archive Access: KRAC CTAF
FacilityFrequency
Racine CTAF123.075
Sponsored by: Racine Sport Flyers

NOTICE

Unauthorized use prohibited. See LiveATC.net Terms of Service


Airport/ARTCC Code
Frequency Search
(e.g., 124.400, 128.75)
Site-wide search
 


Browse Feeds
Top 50 Feeds
HF Oceanic Feeds
Coverage Map
Bad Weather Areas

LiveATC FAQ

Increase Coverage

Contact LiveATC.net
Press Inquiries

LiveATC on iPhone
LiveATC on Android

LiveATC Mobile
(Mobile browser)

ATC Audio Archives
Interesting Recordings

LiveATC Forums


Home Page
About LiveATC.net


Terms of Use
Privacy Policy

AIRMETs/SIGMETs

FAA Airport Status
NAS Status
Arrival Demand


Server Software By:
Icecast.org
Liquidsoap